Time;durP1;ratioP1;P1;durP2;ratioP2;P2;SDS_P1;SDS_P2;PMS_P1;PMS_P2;Temp;Humidity;BMP_temperature;BMP_pressure;BME280_temperature;BME280_humidity;BME280_pressure;Samples;Min_cycle;Max_cycle;Signal;HPM_P1;HPM_P2
2022/04/15 00:02:07;;;;;;;4.40;3.83;;;;;;;;;;5040796;28;20212;-83
2022/04/15 00:04:34;;;;;;;5.57;4.27;;;;;;;;;;5050510;28;20730;-84
2022/04/15 00:07:01;;;;;;;4.87;4.43;;;;;;;;;;5051774;28;20251;-84
2022/04/15 00:09:31;;;;;;;5.03;4.20;;;;;;;;;;5063848;28;20218;-84
2022/04/15 00:12:00;;;;;;;4.80;4.23;;;;;;;;;;5067408;28;20206;-84
2022/04/15 00:14:27;;;;;;;5.03;4.27;;;;;;;;;;5064815;28;20228;-83
2022/04/15 00:16:54;;;;;;;4.93;4.43;;;;;;;;;;5054200;28;20210;-84
2022/04/15 00:19:23;;;;;;;4.20;3.80;;;;;;;;;;5051468;28;20206;-84
2022/04/15 00:21:50;;;;;;;6.03;4.20;;;;;;;;;;5054318;28;20238;-83
2022/04/15 00:24:17;;;;;;;6.03;4.50;;;;;;;;;;5054170;28;20230;-83
2022/04/15 00:26:45;;;;;;;5.60;4.53;;;;;;;;;;5054527;28;20245;-83
2022/04/15 00:29:12;;;;;;;4.47;4.00;;;;;;;;;;5054470;28;20693;-84
2022/04/15 00:31:39;;;;;;;5.17;4.40;;;;;;;;;;5054439;28;20241;-83
2022/04/15 00:34:06;;;;;;;4.93;4.40;;;;;;;;;;5054702;28;20233;-84
2022/04/15 00:36:33;;;;;;;5.47;4.40;;;;;;;;;;5053918;28;20233;-84
2022/04/15 00:39:00;;;;;;;4.87;4.37;;;;;;;;;;5054683;28;20206;-84
2022/04/15 00:41:28;;;;;;;6.23;4.17;;;;;;;;;;5053753;28;20241;-83
2022/04/15 00:43:58;;;;;;;4.37;3.97;;;;;;;;;;5054505;28;20218;-83
2022/04/15 00:46:25;;;;;;;5.03;4.10;;;;;;;;;;5053665;28;20740;-83
2022/04/15 00:48:52;;;;;;;4.37;3.97;;;;;;;;;;5054642;28;20584;-83
2022/04/15 00:51:19;;;;;;;4.63;4.23;;;;;;;;;;5055424;28;20230;-84
2022/04/15 00:53:46;;;;;;;4.83;4.33;;;;;;;;;;5056314;28;20226;-82
2022/04/15 00:56:14;;;;;;;5.20;4.70;;;;;;;;;;5060199;28;20244;-84
2022/04/15 00:58:41;;;;;;;5.33;4.87;;;;;;;;;;5054539;28;20585;-84
2022/04/15 01:01:10;;;;;;;5.57;4.80;;;;;;;;;;5054694;28;20234;-84
2022/04/15 01:03:38;;;;;;;5.97;4.53;;;;;;;;;;5064101;28;20277;-83
2022/04/15 01:06:06;;;;;;;5.27;4.50;;;;;;;;;;5062039;28;20237;-82
2022/04/15 01:08:33;;;;;;;7.63;5.47;;;;;;;;;;5053905;28;20297;-84
2022/04/15 01:11:02;;;;;;;7.23;5.17;;;;;;;;;;5054767;28;20644;-85
2022/04/15 01:13:33;;;;;;;10.23;5.43;;;;;;;;;;5062728;28;20209;-83
2022/04/15 01:16:01;;;;;;;9.40;5.00;;;;;;;;;;5056836;28;20237;-83
2022/04/15 01:18:30;;;;;;;9.23;5.67;;;;;;;;;;5054699;28;20232;-83
2022/04/15 01:20:57;;;;;;;5.33;4.83;;;;;;;;;;5054630;28;20249;-84
2022/04/15 01:23:25;;;;;;;6.73;5.27;;;;;;;;;;5056270;28;20218;-82
2022/04/15 01:25:52;;;;;;;7.97;6.23;;;;;;;;;;5071766;28;20226;-83
2022/04/15 01:28:19;;;;;;;8.10;6.23;;;;;;;;;;5072147;28;20210;-82
2022/04/15 01:30:47;;;;;;;9.07;5.13;;;;;;;;;;5059569;28;20234;-83
2022/04/15 01:33:14;;;;;;;5.17;4.67;;;;;;;;;;5050935;28;20203;-83
2022/04/15 01:35:41;;;;;;;5.40;4.50;;;;;;;;;;5049752;28;20246;-83
2022/04/15 01:38:10;;;;;;;6.43;4.30;;;;;;;;;;5049985;28;20206;-83
2022/04/15 01:40:39;;;;;;;4.53;4.13;;;;;;;;;;5049832;28;20249;-82
2022/04/15 01:43:07;;;;;;;6.57;5.60;;;;;;;;;;5051095;28;20567;-83
2022/04/15 01:45:34;;;;;;;7.07;5.10;;;;;;;;;;5042310;28;20243;-83
2022/04/15 01:48:01;;;;;;;5.07;4.63;;;;;;;;;;5035412;28;20207;-83
2022/04/15 01:50:29;;;;;;;4.73;4.33;;;;;;;;;;5033241;28;20690;-83
2022/04/15 01:52:56;;;;;;;5.80;5.23;;;;;;;;;;5033885;28;20211;-83
2022/04/15 01:55:23;;;;;;;5.23;4.73;;;;;;;;;;5032421;28;20717;-83
2022/04/15 01:57:51;;;;;;;6.13;4.87;;;;;;;;;;5033991;28;20230;-83
2022/04/15 02:00:19;;;;;;;5.37;4.70;;;;;;;;;;5033232;28;20234;-83
2022/04/15 02:02:46;;;;;;;5.77;5.17;;;;;;;;;;5048176;28;20209;-83
2022/04/15 02:05:13;;;;;;;5.07;4.57;;;;;;;;;;5052364;28;20238;-83
2022/04/15 02:07:40;;;;;;;6.37;4.43;;;;;;;;;;5052922;28;20210;-83
2022/04/15 02:10:08;;;;;;;4.73;4.33;;;;;;;;;;5052687;28;20225;-83
2022/04/15 02:12:35;;;;;;;5.10;4.60;;;;;;;;;;5054104;28;20217;-83
2022/04/15 02:15:04;;;;;;;4.50;4.10;;;;;;;;;;5052017;28;20230;-83
2022/04/15 02:17:31;;;;;;;5.33;4.80;;;;;;;;;;5052625;28;20213;-83
2022/04/15 02:19:58;;;;;;;5.83;5.23;;;;;;;;;;5051988;28;20237;-83
2022/04/15 02:22:25;;;;;;;6.13;4.90;;;;;;;;;;5052227;28;20209;-83
2022/04/15 02:24:52;;;;;;;5.73;5.13;;;;;;;;;;5051905;28;20234;-82
2022/04/15 02:27:20;;;;;;;5.93;5.10;;;;;;;;;;5052768;28;20210;-83
2022/04/15 02:29:47;;;;;;;6.53;4.40;;;;;;;;;;5051885;28;20233;-83
2022/04/15 02:32:15;;;;;;;5.00;4.53;;;;;;;;;;5052445;28;20261;-83
2022/04/15 02:34:42;;;;;;;5.30;4.63;;;;;;;;;;5050536;28;20229;-83
2022/04/15 02:37:09;;;;;;;4.47;4.13;;;;;;;;;;5052553;28;20217;-83
2022/04/15 02:39:37;;;;;;;7.30;4.67;;;;;;;;;;5051416;28;20236;-83
2022/04/15 02:42:04;;;;;;;4.50;4.10;;;;;;;;;;5052346;28;20214;-83
2022/04/15 02:44:31;;;;;;;4.60;4.10;;;;;;;;;;5050921;28;20229;-83
2022/04/15 02:46:58;;;;;;;4.93;4.50;;;;;;;;;;5051569;28;20213;-84
2022/04/15 02:49:28;;;;;;;7.60;4.40;;;;;;;;;;5051324;28;20620;-84
2022/04/15 02:51:55;;;;;;;5.13;4.40;;;;;;;;;;5052338;28;20217;-83
2022/04/15 02:54:22;;;;;;;4.63;4.20;;;;;;;;;;5051625;28;20230;-84
2022/04/15 02:56:49;;;;;;;5.00;3.90;;;;;;;;;;5071204;28;20240;-83
2022/04/15 02:59:17;;;;;;;7.87;4.50;;;;;;;;;;5071631;28;20209;-84
2022/04/15 03:01:45;;;;;;;4.70;4.00;;;;;;;;;;5064614;28;20262;-83
2022/04/15 03:04:12;;;;;;;4.27;3.97;;;;;;;;;;5052038;28;20232;-83
2022/04/15 03:06:40;;;;;;;5.17;4.13;;;;;;;;;;5051288;28;20237;-83
2022/04/15 03:09:08;;;;;;;5.10;4.00;;;;;;;;;;5051482;28;20205;-83
2022/04/15 03:11:37;;;;;;;5.73;4.50;;;;;;;;;;5051066;28;20241;-83
2022/04/15 03:14:04;;;;;;;5.70;3.90;;;;;;;;;;5051403;28;20702;-83
2022/04/15 03:16:31;;;;;;;4.43;4.03;;;;;;;;;;5051031;28;20257;-83
2022/04/15 03:18:58;;;;;;;4.83;4.43;;;;;;;;;;5051927;28;20678;-83
2022/04/15 03:21:26;;;;;;;6.23;4.57;;;;;;;;;;5051354;28;20241;-83
2022/04/15 03:23:54;;;;;;;5.90;4.90;;;;;;;;;;5051225;28;20233;-83
2022/04/15 03:26:22;;;;;;;8.97;4.27;;;;;;;;;;5051062;28;20700;-83
2022/04/15 03:28:49;;;;;;;3.60;3.30;;;;;;;;;;5051905;28;20264;-84
2022/04/15 03:31:17;;;;;;;4.60;3.33;;;;;;;;;;5050830;28;20744;-83
2022/04/15 03:33:44;;;;;;;4.10;3.80;;;;;;;;;;5062146;28;20237;-84
2022/04/15 03:36:11;;;;;;;3.67;3.37;;;;;;;;;;5071050;28;20237;-83
2022/04/15 03:38:38;;;;;;;4.00;3.60;;;;;;;;;;5071014;28;20209;-83
2022/04/15 03:41:06;;;;;;;3.70;3.40;;;;;;;;;;5068009;28;20221;-83
2022/04/15 03:43:33;;;;;;;3.80;3.50;;;;;;;;;;5051119;28;20243;-83
2022/04/15 03:46:01;;;;;;;4.50;4.10;;;;;;;;;;5050444;28;20230;-83
2022/04/15 03:48:28;;;;;;;4.10;3.80;;;;;;;;;;5051442;28;20217;-84
2022/04/15 03:50:55;;;;;;;3.60;3.30;;;;;;;;;;5056346;28;20229;-83
2022/04/15 03:53:22;;;;;;;3.80;3.50;;;;;;;;;;5071216;28;20251;-82
2022/04/15 03:55:49;;;;;;;3.20;3.00;;;;;;;;;;5070735;28;20602;-82
2022/04/15 03:58:17;;;;;;;4.03;3.60;;;;;;;;;;5074530;28;20616;-84
2022/04/15 04:00:45;;;;;;;3.80;3.50;;;;;;;;;;5074793;28;20236;-84
2022/04/15 04:03:13;;;;;;;3.80;3.40;;;;;;;;;;5056557;28;20575;-84
2022/04/15 04:05:41;;;;;;;4.40;4.00;;;;;;;;;;5054302;28;20241;-83
2022/04/15 04:08:08;;;;;;;5.83;4.40;;;;;;;;;;5055242;28;20209;-84
2022/04/15 04:10:35;;;;;;;5.47;4.40;;;;;;;;;;5054494;28;20238;-83
2022/04/15 04:13:02;;;;;;;5.73;4.63;;;;;;;;;;5055322;28;20210;-83
2022/04/15 04:15:31;;;;;;;4.90;4.40;;;;;;;;;;5054174;28;20578;-83
2022/04/15 04:17:58;;;;;;;5.30;4.30;;;;;;;;;;5055144;28;20578;-84
2022/04/15 04:20:25;;;;;;;4.60;4.23;;;;;;;;;;5053785;28;20234;-84
2022/04/15 04:22:52;;;;;;;4.83;3.80;;;;;;;;;;5055286;28;20589;-84
2022/04/15 04:25:19;;;;;;;3.53;3.20;;;;;;;;;;5054047;28;20230;-84
2022/04/15 04:27:46;;;;;;;3.60;3.00;;;;;;;;;;5076483;28;20216;-83
2022/04/15 04:30:14;;;;;;;3.40;3.10;;;;;;;;;;5093167;28;20784;-84
2022/04/15 04:32:49;;;;;;;3.60;3.30;;;;;;;;;;5092701;28;20201;-84
2022/04/15 04:35:16;;;;;;;3.43;3.23;;;;;;;;;;5079362;28;20256;-83
2022/04/15 04:37:43;;;;;;;6.53;5.93;;;;;;;;;;5074462;28;20198;-83
2022/04/15 04:40:10;;;;;;;4.10;3.70;;;;;;;;;;5075959;28;20233;-82
2022/04/15 04:42:38;;;;;;;3.57;3.27;;;;;;;;;;5080730;28;20205;-83
2022/04/15 04:45:06;;;;;;;6.53;3.37;;;;;;;;;;5074719;28;20237;-82
2022/04/15 04:47:33;;;;;;;4.13;3.60;;;;;;;;;;5063230;28;20209;-83
2022/04/15 04:50:02;;;;;;;3.80;3.50;;;;;;;;;;5065340;28;20244;-83
2022/04/15 04:52:29;;;;;;;6.33;5.00;;;;;;;;;;5058708;28;20209;-83
2022/04/15 04:54:56;;;;;;;5.67;5.13;;;;;;;;;;5073937;28;20237;-82
2022/04/15 04:57:23;;;;;;;6.93;5.13;;;;;;;;;;5062368;28;20229;-82
2022/04/15 04:59:50;;;;;;;5.20;4.80;;;;;;;;;;5067362;28;20229;-82
2022/04/15 05:02:17;;;;;;;5.80;4.73;;;;;;;;;;5066362;28;20571;-83
2022/04/15 05:04:45;;;;;;;6.83;4.77;;;;;;;;;;5058930;28;20762;-81
2022/04/15 05:07:14;;;;;;;6.50;5.37;;;;;;;;;;5071483;28;20198;-81
2022/04/15 05:09:42;;;;;;;6.63;4.87;;;;;;;;;;5072356;28;20236;-81
2022/04/15 05:12:11;;;;;;;4.77;4.30;;;;;;;;;;5074873;28;20205;-82
2022/04/15 05:14:38;;;;;;;5.17;4.70;;;;;;;;;;5073198;28;20237;-82
2022/04/15 05:17:05;;;;;;;5.27;4.70;;;;;;;;;;5074173;28;20212;-82
2022/04/15 05:19:32;;;;;;;6.57;4.93;;;;;;;;;;5072875;28;20580;-82
2022/04/15 05:21:59;;;;;;;4.97;4.50;;;;;;;;;;5073553;28;20201;-82
2022/04/15 05:24:28;;;;;;;5.97;4.93;;;;;;;;;;5072976;28;20229;-81
2022/04/15 05:26:55;;;;;;;5.43;4.90;;;;;;;;;;5073619;28;20256;-81
2022/04/15 05:29:22;;;;;;;8.40;5.30;;;;;;;;;;5073130;28;20803;-80
2022/04/15 05:31:49;;;;;;;7.07;5.57;;;;;;;;;;5073040;28;20252;-81
2022/04/15 05:34:16;;;;;;;7.90;5.67;;;;;;;;;;5073007;28;20740;-82
2022/04/15 05:36:43;;;;;;;6.10;4.90;;;;;;;;;;5056457;28;20785;-83
2022/04/15 05:39:10;;;;;;;5.70;5.10;;;;;;;;;;5053538;28;20210;-82
2022/04/15 05:41:39;;;;;;;5.30;4.80;;;;;;;;;;5053294;28;20594;-84
2022/04/15 05:44:08;;;;;;;4.87;4.47;;;;;;;;;;5054435;28;20737;-81
2022/04/15 05:46:37;;;;;;;6.80;4.90;;;;;;;;;;5054462;28;20229;-82
2022/04/15 05:49:04;;;;;;;7.17;5.30;;;;;;;;;;5054489;28;20253;-82
2022/04/15 05:51:32;;;;;;;7.20;5.13;;;;;;;;;;5058138;28;20748;-81
2022/04/15 05:53:59;;;;;;;8.47;6.17;;;;;;;;;;5060322;28;20264;-84
2022/04/15 05:56:26;;;;;;;7.10;6.40;;;;;;;;;;5059679;28;20665;-80
2022/04/15 05:58:54;;;;;;;10.63;8.10;;;;;;;;;;5060390;28;20206;-80
2022/04/15 06:01:22;;;;;;;11.60;8.17;;;;;;;;;;5063265;28;20240;-80
2022/04/15 06:03:49;;;;;;;11.47;8.80;;;;;;;;;;5079549;28;20225;-81
2022/04/15 06:06:16;;;;;;;12.73;9.67;;;;;;;;;;5079309;28;20264;-82
2022/04/15 06:08:43;;;;;;;19.40;12.93;;;;;;;;;;5076382;28;20205;-83
2022/04/15 06:11:10;;;;;;;17.70;12.47;;;;;;;;;;5077340;28;20302;-82
2022/04/15 06:13:41;;;;;;;18.03;12.90;;;;;;;;;;5078986;28;20212;-81
2022/04/15 06:16:10;;;;;;;22.77;12.93;;;;;;;;;;5077997;28;20228;-81
2022/04/15 06:18:37;;;;;;;18.47;13.07;;;;;;;;;;5077759;28;20244;-80
2022/04/15 06:21:04;;;;;;;20.63;14.10;;;;;;;;;;5077964;28;20241;-81
2022/04/15 06:23:32;;;;;;;20.33;14.53;;;;;;;;;;5074658;28;20217;-81
2022/04/15 06:25:59;;;;;;;21.10;15.03;;;;;;;;;;5073631;28;20240;-81
2022/04/15 06:28:26;;;;;;;24.03;16.37;;;;;;;;;;5077425;28;20209;-80
2022/04/15 06:30:54;;;;;;;29.97;18.97;;;;;;;;;;5077261;28;20240;-80
2022/04/15 06:33:22;;;;;;;31.90;19.57;;;;;;;;;;5078178;28;20205;-81
2022/04/15 06:35:51;;;;;;;30.27;20.47;;;;;;;;;;5072488;28;20238;-81
2022/04/15 06:38:18;;;;;;;34.57;21.73;;;;;;;;;;5060034;28;20214;-81
2022/04/15 06:40:45;;;;;;;34.87;22.67;;;;;;;;;;5052881;28;20265;-82
2022/04/15 06:43:14;;;;;;;36.43;22.30;;;;;;;;;;5056337;28;20209;-80
2022/04/15 06:45:41;;;;;;;33.10;23.53;;;;;;;;;;5056630;28;20264;-81
2022/04/15 06:48:08;;;;;;;37.87;24.47;;;;;;;;;;5075932;28;20221;-80
2022/04/15 06:50:37;;;;;;;37.40;23.87;;;;;;;;;;5076114;28;20239;-81
2022/04/15 06:53:05;;;;;;;37.27;23.37;;;;;;;;;;5076698;28;20211;-80
2022/04/15 06:55:32;;;;;;;30.47;22.53;;;;;;;;;;5075871;28;20237;-81
2022/04/15 06:57:59;;;;;;;31.67;22.23;;;;;;;;;;5076915;28;20229;-81
2022/04/15 07:00:26;;;;;;;31.30;21.03;;;;;;;;;;5075878;28;20229;-81
2022/04/15 07:02:53;;;;;;;25.33;19.03;;;;;;;;;;5061994;28;20202;-81
2022/04/15 07:05:20;;;;;;;25.43;18.97;;;;;;;;;;5056703;28;20238;-81
2022/04/15 07:07:49;;;;;;;21.17;15.70;;;;;;;;;;5056265;28;20238;-81
2022/04/15 07:10:18;;;;;;;21.87;16.07;;;;;;;;;;5062583;28;20606;-84
2022/04/15 07:12:45;;;;;;;21.33;15.67;;;;;;;;;;5055457;28;20218;-80
2022/04/15 07:15:12;;;;;;;18.70;15.20;;;;;;;;;;5056362;28;20697;-83
2022/04/15 07:17:39;;;;;;;14.67;12.90;;;;;;;;;;5052352;28;20210;-83
2022/04/15 07:20:07;;;;;;;18.80;13.83;;;;;;;;;;5053019;28;20236;-83
2022/04/15 07:22:34;;;;;;;18.00;12.63;;;;;;;;;;5051639;28;20202;-83
2022/04/15 07:25:02;;;;;;;14.23;12.60;;;;;;;;;;5052267;28;20241;-81
2022/04/15 07:27:29;;;;;;;14.63;11.60;;;;;;;;;;5061632;28;20213;-81
2022/04/15 07:29:56;;;;;;;12.43;11.13;;;;;;;;;;5071390;28;20232;-81
2022/04/15 07:32:25;;;;;;;12.93;11.43;;;;;;;;;;5070830;28;20209;-81
2022/04/15 07:34:53;;;;;;;14.83;10.90;;;;;;;;;;5070927;28;20286;-81
2022/04/15 07:37:20;;;;;;;12.10;10.80;;;;;;;;;;5072345;28;20201;-81
2022/04/15 07:39:47;;;;;;;13.97;10.57;;;;;;;;;;5070959;28;20237;-82
2022/04/15 07:42:15;;;;;;;14.07;11.13;;;;;;;;;;5071603;28;20201;-83
2022/04/15 07:44:44;;;;;;;11.27;9.93;;;;;;;;;;5070731;28;20232;-83
2022/04/15 07:47:11;;;;;;;13.93;9.93;;;;;;;;;;5070992;28;20225;-83
2022/04/15 07:49:38;;;;;;;12.67;10.17;;;;;;;;;;5070021;28;20206;-83
2022/04/15 07:52:06;;;;;;;11.73;9.60;;;;;;;;;;5071391;28;20700;-82
2022/04/15 07:54:33;;;;;;;13.30;10.47;;;;;;;;;;5069813;28;20244;-82
2022/04/15 07:57:00;;;;;;;11.03;9.27;;;;;;;;;;5070911;28;20206;-81
2022/04/15 07:59:29;;;;;;;11.87;9.67;;;;;;;;;;5070750;28;20209;-82
2022/04/15 08:01:56;;;;;;;11.53;9.47;;;;;;;;;;5063440;28;20233;-81
2022/04/15 08:04:23;;;;;;;11.03;9.17;;;;;;;;;;5050903;28;20230;-82
2022/04/15 08:06:52;;;;;;;16.63;9.93;;;;;;;;;;5051445;28;20230;-82
2022/04/15 08:09:19;;;;;;;12.80;9.37;;;;;;;;;;5050829;28;20727;-84
2022/04/15 08:11:46;;;;;;;10.60;8.87;;;;;;;;;;5050486;28;20245;-84
2022/04/15 08:14:13;;;;;;;15.33;9.07;;;;;;;;;;5050859;28;20234;-84
2022/04/15 08:16:42;;;;;;;12.97;8.37;;;;;;;;;;5050719;28;20245;-87
2022/04/15 08:19:09;;;;;;;11.47;7.93;;;;;;;;;;5050872;28;20209;-82
2022/04/15 08:21:36;;;;;;;8.53;7.67;;;;;;;;;;5050346;28;20241;-83
2022/04/15 08:24:03;;;;;;;8.67;7.67;;;;;;;;;;5051320;28;20249;-83
2022/04/15 08:26:30;;;;;;;10.03;7.60;;;;;;;;;;5050897;28;20230;-83
2022/04/15 08:28:58;;;;;;;9.97;6.90;;;;;;;;;;5051274;28;20205;-83
2022/04/15 08:31:25;;;;;;;8.97;6.47;;;;;;;;;;5051057;28;20268;-82
2022/04/15 08:33:53;;;;;;;6.47;5.37;;;;;;;;;;5051524;28;20596;-84
2022/04/15 08:36:20;;;;;;;8.33;5.50;;;;;;;;;;5050901;28;20238;-83
2022/04/15 08:38:48;;;;;;;7.40;5.50;;;;;;;;;;5051536;28;20206;-83
2022/04/15 08:41:15;;;;;;;3.72;3.08;;;;;;;;;;5051012;28;20732;-84
2022/04/15 08:43:43;;;;;;;3.67;3.20;;;;;;;;;;5051747;28;20623;-83
2022/04/15 08:46:13;;;;;;;5.57;3.47;;;;;;;;;;5067017;28;20242;-82
2022/04/15 08:48:40;;;;;;;5.25;3.65;;;;;;;;;;5074776;28;20229;-82
2022/04/15 08:51:11;;;;;;;4.35;3.00;;;;;;;;;;5072581;28;20283;-83
2022/04/15 08:53:39;;;;;;;3.03;2.42;;;;;;;;;;5060932;28;20206;-83
2022/04/15 08:56:06;;;;;;;4.00;2.63;;;;;;;;;;5055123;28;20245;-87
2022/04/15 08:58:35;;;;;;;4.40;2.88;;;;;;;;;;5055539;28;20217;-89
2022/04/15 09:01:02;;;;;;;5.88;3.78;;;;;;;;;;5055508;28;20295;-87
2022/04/15 09:03:29;;;;;;;2.97;2.63;;;;;;;;;;5056217;28;20187;-88
2022/04/15 09:05:56;;;;;;;3.15;2.45;;;;;;;;;;5054867;28;20229;-88
2022/04/15 09:08:25;;;;;;;4.82;3.13;;;;;;;;;;5055501;28;20320;-88
2022/04/15 09:10:56;;;;;;;3.97;2.10;;;;;;;;;;5055032;28;20237;-88
2022/04/15 09:13:28;;;;;;;4.60;3.08;;;;;;;;;;5064341;28;20236;-89
2022/04/15 09:15:56;;;;;;;2.83;2.40;;;;;;;;;;5070624;28;20275;-87
2022/04/15 09:18:30;;;;;;;3.38;3.03;;;;;;;;;;5057712;28;20229;-89
2022/04/15 09:21:12;;;;;;;2.88;2.22;;;;;;;;;;5074059;28;20232;-89
2022/04/15 09:23:41;;;;;;;2.15;1.95;;;;;;;;;;5057530;28;20210;-88
2022/04/15 09:26:08;;;;;;;3.28;2.03;;;;;;;;;;5054016;28;20737;-89
2022/04/15 09:28:35;;;;;;;2.40;2.05;;;;;;;;;;5054603;28;20222;-89
2022/04/15 09:31:03;;;;;;;4.25;2.25;;;;;;;;;;5054672;28;20233;-88
2022/04/15 09:33:31;;;;;;;2.88;2.25;;;;;;;;;;5056173;28;20205;-89
2022/04/15 09:35:58;;;;;;;2.22;1.95;;;;;;;;;;5054191;28;20257;-87
2022/04/15 09:38:42;;;;;;;3.17;1.80;;;;;;;;;;5053191;28;20201;-87
2022/04/15 09:41:22;;;;;;;2.20;2.00;;;;;;;;;;5072953;28;20240;-88
2022/04/15 09:43:52;;;;;;;1.20;1.10;;;;;;;;;;5073883;28;20225;-88
2022/04/15 09:46:19;;;;;;;3.28;1.10;;;;;;;;;;5073993;28;20241;-88
2022/04/15 09:49:02;;;;;;;1.10;1.00;;;;;;;;;;5074395;28;20232;-88
2022/04/15 09:51:33;;;;;;;1.42;1.27;;;;;;;;;;5075571;28;20233;-82
2022/04/15 09:54:01;;;;;;;3.00;1.10;;;;;;;;;;5077691;28;20224;-80
2022/04/15 09:56:31;;;;;;;1.83;1.00;;;;;;;;;;5077549;28;20695;-80
2022/04/15 09:59:01;;;;;;;1.05;1.02;;;;;;;;;;5078113;28;20212;-80
2022/04/15 10:01:30;;;;;;;1.67;1.58;;;;;;;;;;5070380;28;20706;-80
2022/04/15 10:03:57;;;;;;;2.92;1.38;;;;;;;;;;5056884;28;20237;-79
2022/04/15 10:06:26;;;;;;;1.48;1.38;;;;;;;;;;5055543;28;20245;-79
2022/04/15 10:08:53;;;;;;;2.80;1.40;;;;;;;;;;5055461;28;20714;-81
2022/04/15 10:11:21;;;;;;;2.00;1.13;;;;;;;;;;5056367;28;20233;-83
2022/04/15 10:13:50;;;;;;;1.65;1.25;;;;;;;;;;5056485;28;20431;-83
2022/04/15 10:16:18;;;;;;;1.42;1.20;;;;;;;;;;5054547;28;20652;-85
2022/04/15 10:18:46;;;;;;;2.28;1.35;;;;;;;;;;5054417;28;20810;-85
2022/04/15 10:21:13;;;;;;;1.88;1.40;;;;;;;;;;5056599;28;20233;-84
2022/04/15 10:23:40;;;;;;;1.42;1.27;;;;;;;;;;5066022;28;20214;-83
2022/04/15 10:26:08;;;;;;;1.98;1.45;;;;;;;;;;5065481;28;20236;-84
2022/04/15 10:28:44;;;;;;;2.72;1.65;;;;;;;;;;5060145;28;20244;-82
2022/04/15 10:31:15;;;;;;;2.33;1.90;;;;;;;;;;5064646;28;20252;-81
2022/04/15 10:33:43;;;;;;;1.95;1.63;;;;;;;;;;5060986;28;21178;-84
2022/04/15 10:36:12;;;;;;;2.63;1.70;;;;;;;;;;5061385;28;20521;-84
2022/04/15 10:38:59;;;;;;;1.50;1.40;;;;;;;;;;5052384;28;20260;-86
2022/04/15 10:41:27;;;;;;;2.13;1.60;;;;;;;;;;5052614;28;20608;-83
2022/04/15 10:43:58;;;;;;;1.92;1.42;;;;;;;;;;5054714;28;20230;-83
2022/04/15 10:46:30;;;;;;;3.72;1.35;;;;;;;;;;5053524;28;20318;-83
2022/04/15 10:48:58;;;;;;;2.05;1.75;;;;;;;;;;5056033;28;20210;-82
2022/04/15 10:51:27;;;;;;;2.63;1.60;;;;;;;;;;5053183;28;20321;-82
2022/04/15 10:53:56;;;;;;;2.20;1.85;;;;;;;;;;5054429;28;20230;-82
2022/04/15 10:56:24;;;;;;;1.75;1.65;;;;;;;;;;5052703;28;20332;-82
2022/04/15 11:01:52;;;;;;;1.73;1.50;;;;;;;;;;5054313;28;20380;-82
2022/04/15 11:04:23;;;;;;;2.67;1.65;;;;;;;;;;5053534;28;20317;-82
2022/04/15 11:06:50;;;;;;;2.08;1.48;;;;;;;;;;5052182;28;20305;-81
2022/04/15 11:09:17;;;;;;;1.77;1.63;;;;;;;;;;5052167;28;20614;-81
2022/04/15 11:11:45;;;;;;;2.00;1.80;;;;;;;;;;5052134;28;20234;-83
2022/04/15 11:14:16;;;;;;;1.70;1.58;;;;;;;;;;5063045;28;20228;-82
2022/04/15 11:16:47;;;;;;;1.70;1.60;;;;;;;;;;5071099;28;20668;-82
2022/04/15 11:19:18;;;;;;;2.10;1.90;;;;;;;;;;5062096;28;20233;-82
2022/04/15 11:21:50;;;;;;;1.80;1.70;;;;;;;;;;5051251;28;20285;-83
2022/04/15 11:24:21;;;;;;;1.73;1.48;;;;;;;;;;5051096;28;20269;-83
2022/04/15 11:26:50;;;;;;;2.25;1.40;;;;;;;;;;5051552;28;20218;-83
2022/04/15 11:29:18;;;;;;;1.35;1.25;;;;;;;;;;5052551;28;20226;-82
2022/04/15 11:31:46;;;;;;;2.10;1.75;;;;;;;;;;5052482;28;20226;-83
2022/04/15 11:34:15;;;;;;;3.40;1.35;;;;;;;;;;5058791;28;20225;-83
2022/04/15 11:36:44;;;;;;;2.05;1.55;;;;;;;;;;5060957;28;20327;-83
2022/04/15 11:39:12;;;;;;;2.05;1.80;;;;;;;;;;5072485;28;20643;-83
2022/04/15 11:41:44;;;;;;;2.15;1.40;;;;;;;;;;5071844;28;20241;-82
2022/04/15 11:44:12;;;;;;;3.00;1.75;;;;;;;;;;5072421;28;20231;-82
2022/04/15 11:46:40;;;;;;;2.85;1.50;;;;;;;;;;5071602;28;20737;-82
2022/04/15 11:49:15;;;;;;;1.65;1.52;;;;;;;;;;5072048;28;20224;-82
2022/04/15 11:51:44;;;;;;;2.53;1.92;;;;;;;;;;5063695;28;20229;-82
2022/04/15 11:54:11;;;;;;;1.55;1.45;;;;;;;;;;5051622;28;20229;-82
2022/04/15 11:56:39;;;;;;;1.45;1.35;;;;;;;;;;5050894;28;20240;-82
2022/04/15 11:59:09;;;;;;;1.77;1.50;;;;;;;;;;5051332;28;20225;-82
2022/04/15 12:01:36;;;;;;;2.83;1.52;;;;;;;;;;5051462;28;20238;-82
2022/04/15 12:04:05;;;;;;;1.35;1.25;;;;;;;;;;5054069;28;20232;-82
2022/04/15 12:06:32;;;;;;;2.15;1.50;;;;;;;;;;5052506;28;20317;-81
2022/04/15 12:09:00;;;;;;;3.85;1.77;;;;;;;;;;5051313;28;20233;-82
2022/04/15 12:11:27;;;;;;;1.63;1.20;;;;;;;;;;5051181;28;20237;-82
2022/04/15 12:13:56;;;;;;;1.63;1.30;;;;;;;;;;5051530;28;20229;-82
2022/04/15 12:16:24;;;;;;;1.90;1.30;;;;;;;;;;5050798;28;20290;-82
2022/04/15 12:18:51;;;;;;;2.05;1.85;;;;;;;;;;5053509;28;20213;-82
2022/04/15 12:21:20;;;;;;;1.98;1.25;;;;;;;;;;5054580;28;20233;-82
2022/04/15 12:24:07;;;;;;;3.33;1.58;;;;;;;;;;5055322;28;20234;-81
2022/04/15 12:26:44;;;;;;;2.67;1.80;;;;;;;;;;5064488;28;20256;-82
2022/04/15 12:31:56;;;;;;;1.13;1.08;;;;;;;;;;5055218;28;20328;-84
2022/04/15 12:34:33;;;;;;;2.33;1.20;;;;;;;;;;5054856;28;20236;-86
2022/04/15 12:37:01;;;;;;;2.42;1.52;;;;;;;;;;5055160;28;20221;-86
2022/04/15 12:39:28;;;;;;;1.00;1.00;;;;;;;;;;5054833;28;20209;-86
2022/04/15 12:41:56;;;;;;;0.88;0.88;;;;;;;;;;5055929;28;20221;-86
2022/04/15 12:44:27;;;;;;;1.92;1.00;;;;;;;;;;5055509;28;20321;-87
2022/04/15 12:47:00;;;;;;;1.38;1.00;;;;;;;;;;5072217;28;20224;-86
2022/04/15 12:49:28;;;;;;;1.55;0.90;;;;;;;;;;5074866;28;20205;-86
2022/04/15 12:51:58;;;;;;;1.17;1.00;;;;;;;;;;5077098;28;20213;-82
2022/04/15 12:54:27;;;;;;;1.77;1.00;;;;;;;;;;5079799;28;20225;-83
2022/04/15 12:56:55;;;;;;;3.30;1.25;;;;;;;;;;5079344;28;20189;-82
2022/04/15 12:59:22;;;;;;;0.98;0.88;;;;;;;;;;5076944;28;20205;-83
2022/04/15 13:01:49;;;;;;;1.95;1.25;;;;;;;;;;5082189;28;20301;-82
2022/04/15 13:04:16;;;;;;;1.80;1.20;;;;;;;;;;5081189;28;20237;-82
2022/04/15 13:06:44;;;;;;;1.58;1.25;;;;;;;;;;5075034;28;20241;-82
2022/04/15 13:09:11;;;;;;;2.25;1.23;;;;;;;;;;5074691;28;20226;-82
2022/04/15 13:11:39;;;;;;;3.13;1.45;;;;;;;;;;5068136;28;20241;-82
2022/04/15 13:14:06;;;;;;;1.00;0.90;;;;;;;;;;5069713;28;20237;-82
2022/04/15 13:16:33;;;;;;;2.85;1.40;;;;;;;;;;5065797;28;20226;-83
2022/04/15 13:19:00;;;;;;;1.38;1.13;;;;;;;;;;5065261;28;20670;-82
2022/04/15 13:21:28;;;;;;;1.75;1.05;;;;;;;;;;5063210;28;20229;-82
2022/04/15 13:23:59;;;;;;;2.85;1.15;;;;;;;;;;5063972;28;20439;-82
2022/04/15 13:26:27;;;;;;;2.03;1.20;;;;;;;;;;5063323;28;20238;-82
2022/04/15 13:28:56;;;;;;;1.23;0.93;;;;;;;;;;5057663;28;20229;-83
2022/04/15 13:31:23;;;;;;;3.20;1.33;;;;;;;;;;5057510;28;20268;-82
2022/04/15 13:33:50;;;;;;;1.60;1.13;;;;;;;;;;5058449;28;20305;-81
2022/04/15 13:36:18;;;;;;;1.88;1.02;;;;;;;;;;5062299;28;20230;-82
2022/04/15 13:38:45;;;;;;;3.10;1.58;;;;;;;;;;5059168;28;20202;-83
2022/04/15 13:41:15;;;;;;;3.58;1.77;;;;;;;;;;5058780;28;20250;-82
2022/04/15 13:43:43;;;;;;;1.70;1.50;;;;;;;;;;5064835;28;20286;-81
2022/04/15 13:46:11;;;;;;;2.50;1.23;;;;;;;;;;5062124;28;20708;-82
2022/04/15 13:48:41;;;;;;;1.45;1.20;;;;;;;;;;5064882;28;20261;-81
2022/04/15 13:51:08;;;;;;;1.55;1.23;;;;;;;;;;5066204;28;20238;-82
2022/04/15 13:56:39;;;;;;;2.05;1.38;;;;;;;;;;5046878;28;20759;-82
2022/04/15 13:59:08;;;;;;;1.33;1.23;;;;;;;;;;5066544;28;20216;-82
2022/04/15 14:01:39;;;;;;;1.13;1.00;;;;;;;;;;5065538;28;20221;-80
2022/04/15 14:04:08;;;;;;;1.23;1.08;;;;;;;;;;5082798;28;20239;-81
2022/04/15 14:06:35;;;;;;;3.08;1.45;;;;;;;;;;5082928;28;20614;-82
2022/04/15 14:09:02;;;;;;;1.77;1.27;;;;;;;;;;5082451;28;20225;-82
2022/04/15 14:11:31;;;;;;;1.80;1.15;;;;;;;;;;5083184;28;20237;-81
2022/04/15 14:14:00;;;;;;;1.20;1.10;;;;;;;;;;5079831;28;20752;-82
2022/04/15 14:16:27;;;;;;;1.35;1.17;;;;;;;;;;5060458;28;20229;-82
2022/04/15 14:18:55;;;;;;;1.52;1.10;;;;;;;;;;5061913;28;20301;-82
2022/04/15 14:21:23;;;;;;;1.27;1.15;;;;;;;;;;5059812;28;20260;-82
2022/04/15 14:23:50;;;;;;;2.63;1.20;;;;;;;;;;5057992;28;20233;-82
2022/04/15 14:26:18;;;;;;;4.57;1.73;;;;;;;;;;5058270;28;20238;-82
2022/04/15 14:28:45;;;;;;;1.20;1.00;;;;;;;;;;5056545;28;20321;-82
2022/04/15 14:31:13;;;;;;;1.10;1.00;;;;;;;;;;5055960;28;20237;-82
2022/04/15 14:33:41;;;;;;;1.98;1.40;;;;;;;;;;5067645;28;20206;-84
2022/04/15 14:36:10;;;;;;;0.93;0.90;;;;;;;;;;5055773;28;20257;-83
2022/04/15 14:38:38;;;;;;;2.30;0.80;;;;;;;;;;5055637;28;20225;-82
2022/04/15 14:41:06;;;;;;;0.90;0.90;;;;;;;;;;5054046;28;20237;-82
2022/04/15 14:43:33;;;;;;;1.17;1.02;;;;;;;;;;5055234;28;20210;-82
2022/04/15 14:46:01;;;;;;;1.30;1.20;;;;;;;;;;5055465;28;20238;-82
2022/04/15 14:48:28;;;;;;;2.25;1.15;;;;;;;;;;5054151;28;20673;-83
2022/04/15 14:50:58;;;;;;;2.25;0.80;;;;;;;;;;5063316;28;20225;-83
2022/04/15 14:53:27;;;;;;;2.90;0.95;;;;;;;;;;5054780;28;20241;-84